createdAt,value
2022-08-05T00:02:55.810Z,1013.83
2022-08-05T00:08:03.302Z,1013.87
2022-08-05T00:13:10.171Z,1013.83
2022-08-05T00:18:21.712Z,1013.76
2022-08-05T00:23:44.565Z,1013.84
2022-08-05T00:28:31.805Z,1013.85
2022-08-05T00:34:54.674Z,1013.85
2022-08-05T00:38:46.245Z,1013.93
2022-08-05T00:43:53.540Z,1013.95
2022-08-05T00:49:00.779Z,1014.01
2022-08-05T00:54:08.045Z,1014.00
2022-08-05T00:59:15.258Z,1014.06
2022-08-05T01:04:26.874Z,1014.05
2022-08-05T01:09:30.473Z,1013.99
2022-08-05T01:14:37.081Z,1014.10
2022-08-05T01:20:02.424Z,1014.19
2022-08-05T01:24:51.595Z,1014.17
2022-08-05T01:29:58.940Z,1014.14
2022-08-05T01:35:10.567Z,1014.28
2022-08-05T01:40:13.746Z,1014.42
2022-08-05T01:45:21.021Z,1014.44
2022-08-05T01:50:28.574Z,1014.44
2022-08-05T01:55:36.111Z,1014.53
2022-08-05T02:00:42.737Z,1014.60
2022-08-05T02:05:49.949Z,1014.59
2022-08-05T02:10:57.186Z,1014.75
2022-08-05T02:16:04.462Z,1014.89
2022-08-05T02:21:15.191Z,1015.07
2022-08-05T02:26:18.910Z,1015.07
2022-08-05T02:31:26.175Z,1015.10
2022-08-05T02:36:33.446Z,1015.06
2022-08-05T02:41:58.066Z,1015.09
2022-08-05T02:46:58.250Z,1015.14
2022-08-05T02:52:02.804Z,1015.18
2022-08-05T02:57:02.418Z,1015.12
2022-08-05T03:02:09.700Z,1015.09
2022-08-05T03:07:48.430Z,1015.03
2022-08-05T03:12:24.164Z,1015.16
2022-08-05T03:17:31.458Z,1015.10
2022-08-05T03:22:38.638Z,1014.99
2022-08-05T03:27:59.086Z,1014.95
2022-08-05T03:32:53.009Z,1015.08
2022-08-05T03:38:00.237Z,1015.13
2022-08-05T03:43:58.986Z,1014.98
2022-08-05T03:48:14.668Z,1014.94
2022-08-05T03:55:34.250Z,1014.89
2022-08-05T03:58:29.342Z,1014.93
2022-08-05T04:03:38.101Z,1014.71
2022-08-05T04:08:43.570Z,1014.59
2022-08-05T04:13:53.411Z,1014.40
2022-08-05T04:18:58.859Z,1014.30
2022-08-05T04:24:07.086Z,1014.24
2022-08-05T04:29:13.253Z,1014.49
2022-08-05T04:34:32.658Z,1014.56
2022-08-05T04:39:27.951Z,1014.57
2022-08-05T04:44:34.914Z,1014.61
2022-08-05T04:50:02.533Z,1014.53
2022-08-05T04:54:49.576Z,1014.52
2022-08-05T04:59:56.572Z,1014.57
2022-08-05T05:05:03.853Z,1014.62
2022-08-05T05:10:11.127Z,1014.59
2022-08-05T05:15:56.974Z,1014.59
2022-08-05T05:20:28.618Z,1014.70
2022-08-05T05:25:40.480Z,1014.70
2022-08-05T05:30:40.095Z,1014.60
2022-08-05T05:35:47.927Z,1014.78
2022-08-05T05:40:54.558Z,1014.76
2022-08-05T05:46:01.769Z,1014.78
2022-08-05T05:51:15.469Z,1014.76
2022-08-05T05:56:16.225Z,1014.85
2022-08-05T06:01:23.581Z,1014.88
2022-08-05T06:06:33.260Z,1014.96
2022-08-05T06:11:39.336Z,1014.96
2022-08-05T06:16:45.271Z,1015.00
2022-08-05T06:21:52.537Z,1015.00
2022-08-05T06:26:59.757Z,1015.16
2022-08-05T06:32:20.886Z,1015.22
2022-08-05T06:37:14.203Z,1015.22
2022-08-05T06:42:21.414Z,1015.28
2022-08-05T06:48:11.843Z,1015.41
2022-08-05T06:52:37.067Z,1015.45
2022-08-05T06:58:03.713Z,1015.59
2022-08-05T07:02:53.818Z,1015.80
2022-08-05T07:07:57.605Z,1015.99
2022-08-05T07:13:04.874Z,1016.43
2022-08-05T07:18:17.651Z,1016.63
2022-08-05T07:23:26.479Z,1016.65
2022-08-05T07:28:26.660Z,1016.74
2022-08-05T07:33:37.002Z,1016.87
2022-08-05T07:38:43.094Z,1016.96
2022-08-05T07:43:48.302Z,1016.90
2022-08-05T07:49:02.903Z,1016.88
2022-08-05T07:54:02.722Z,1016.88
2022-08-05T07:59:09.913Z,1016.84
2022-08-05T08:04:17.203Z,1016.79
2022-08-05T08:09:24.451Z,1016.90
2022-08-05T08:14:31.649Z,1016.97
2022-08-05T08:20:22.635Z,1016.99
2022-08-05T08:24:51.248Z,1016.90
2022-08-05T08:30:05.361Z,1017.06
2022-08-05T08:35:00.638Z,1017.06
2022-08-05T08:40:07.862Z,1017.15
2022-08-05T08:45:23.839Z,1017.18
2022-08-05T08:50:52.600Z,1017.22
2022-08-05T08:56:01.964Z,1017.21
2022-08-05T09:00:36.971Z,1017.24
2022-08-05T09:06:07.928Z,1017.30
2022-08-05T09:10:51.232Z,1017.28
2022-08-05T09:15:58.523Z,1017.31
2022-08-05T09:21:05.689Z,1017.39
2022-08-05T09:26:20.517Z,1017.39
2022-08-05T09:32:38.671Z,1017.40
2022-08-05T09:36:33.543Z,1017.37
2022-08-05T09:41:38.266Z,1017.18
2022-08-05T09:46:51.728Z,1017.17
2022-08-05T09:51:49.717Z,1017.16
2022-08-05T09:56:57.649Z,1017.20
2022-08-05T10:02:03.672Z,1016.97
2022-08-05T10:07:25.032Z,1017.04
2022-08-05T10:12:30.948Z,1016.95
2022-08-05T10:17:37.840Z,1016.93
2022-08-05T10:22:37.691Z,1016.88
2022-08-05T10:28:09.239Z,1016.78
2022-08-05T10:33:02.068Z,1016.71
2022-08-05T10:37:54.867Z,1016.67
2022-08-05T10:43:02.104Z,1016.62
2022-08-05T10:48:31.508Z,1016.53
2022-08-05T10:53:17.494Z,1016.53
2022-08-05T10:58:35.726Z,1016.45
2022-08-05T11:03:31.107Z,1016.37
2022-08-05T11:08:39.338Z,1016.31
2022-08-05T11:13:54.995Z,1016.25
2022-08-05T11:18:52.762Z,1016.27
2022-08-05T11:24:04.751Z,1016.31
2022-08-05T11:29:12.668Z,1016.15
2022-08-05T11:34:14.808Z,1016.12
2022-08-05T11:39:21.723Z,1016.05
2022-08-05T11:44:40.752Z,1016.03
2022-08-05T11:49:36.175Z,1016.00
2022-08-05T11:54:43.533Z,1015.97
2022-08-05T11:59:50.897Z,1015.78
2022-08-05T12:04:59.204Z,1015.79
2022-08-05T12:10:09.556Z,1015.75
2022-08-05T12:15:16.651Z,1015.67
2022-08-05T12:20:28.803Z,1015.65
2022-08-05T12:25:28.569Z,1015.63
2022-08-05T12:30:34.000Z,1015.54
2022-08-05T12:35:43.105Z,1015.47
2022-08-05T12:40:48.458Z,1015.48
2022-08-05T12:45:55.737Z,1015.37
2022-08-05T12:51:02.939Z,1015.25
2022-08-05T12:56:34.330Z,1015.22
2022-08-05T13:02:01.963Z,1015.13
2022-08-05T13:06:24.540Z,1015.04
2022-08-05T13:12:02.352Z,1014.98
2022-08-05T13:16:39.072Z,1014.94
2022-08-05T13:21:52.337Z,1014.87
2022-08-05T13:26:53.506Z,1014.82
2022-08-05T13:32:04.267Z,1014.76
2022-08-05T13:37:07.911Z,1014.73
2022-08-05T13:42:15.408Z,1014.68
2022-08-05T13:47:36.142Z,1014.67
2022-08-05T13:52:29.613Z,1014.67
2022-08-05T13:57:50.573Z,1014.64
2022-08-05T14:02:44.113Z,1014.57
2022-08-05T14:08:01.010Z,1014.60
2022-08-05T14:12:59.660Z,1014.61
2022-08-05T14:18:06.499Z,1014.54
2022-08-05T14:23:13.689Z,1014.54
2022-08-05T14:28:26.397Z,1014.56
2022-08-05T14:33:32.442Z,1014.47
2022-08-05T14:38:36.410Z,1014.40
2022-08-05T14:43:57.779Z,1014.37
2022-08-05T14:48:50.424Z,1014.45
2022-08-05T14:54:26.152Z,1014.44
2022-08-05T14:59:04.803Z,1014.55
2022-08-05T15:04:12.041Z,1014.59
2022-08-05T15:09:52.044Z,1014.65
2022-08-05T15:14:35.097Z,1014.68
2022-08-05T15:19:33.816Z,1014.60
2022-08-05T15:24:41.073Z,1014.57
2022-08-05T15:29:48.996Z,1014.62
2022-08-05T15:34:55.552Z,1014.58
2022-08-05T15:40:59.775Z,1014.60
2022-08-05T15:45:10.009Z,1014.61
2022-08-05T15:50:17.204Z,1014.63
2022-08-05T15:56:01.339Z,1014.80
2022-08-05T16:00:50.196Z,1014.82
2022-08-05T16:05:39.169Z,1014.90
2022-08-05T16:10:46.249Z,1014.90
2022-08-05T16:15:53.519Z,1014.87
2022-08-05T16:21:03.966Z,1014.86
2022-08-05T16:26:07.928Z,1014.97
2022-08-05T16:31:15.198Z,1015.04
2022-08-05T16:36:23.904Z,1015.16
2022-08-05T16:42:14.590Z,1015.25
2022-08-05T16:46:36.968Z,1015.35
2022-08-05T16:51:50.988Z,1015.35
2022-08-05T16:56:51.940Z,1015.40
2022-08-05T17:02:00.874Z,1015.61
2022-08-05T17:07:11.491Z,1015.55
2022-08-05T17:12:13.233Z,1015.46
2022-08-05T17:17:20.517Z,1015.36
2022-08-05T17:22:28.078Z,1015.37
2022-08-05T17:27:34.930Z,1015.18
2022-08-05T17:32:42.347Z,1015.18
2022-08-05T17:37:49.446Z,1015.16
2022-08-05T17:42:56.615Z,1015.17
2022-08-05T17:48:03.901Z,1015.04
2022-08-05T17:53:11.149Z,1015.02
2022-08-05T17:58:21.718Z,1014.70
2022-08-05T18:03:58.642Z,1014.64
2022-08-05T18:08:32.922Z,1014.71
2022-08-05T18:13:43.808Z,1014.97
2022-08-05T18:18:47.966Z,1015.26
2022-08-05T18:23:54.669Z,1015.59
2022-08-05T18:29:01.871Z,1015.75
2022-08-05T18:34:11.977Z,1015.90
2022-08-05T18:39:42.220Z,1016.05
2022-08-05T18:44:32.953Z,1016.13
2022-08-05T18:49:30.868Z,1016.18
2022-08-05T18:54:41.418Z,1016.42
2022-08-05T19:00:03.129Z,1016.59
2022-08-05T19:05:02.073Z,1016.65
2022-08-05T19:10:01.022Z,1017.15
2022-08-05T19:15:25.029Z,1017.39
2022-08-05T19:20:16.370Z,1017.80
2022-08-05T19:25:30.084Z,1018.10
2022-08-05T19:30:31.608Z,1018.87
2022-08-05T19:35:56.013Z,1019.61
2022-08-05T19:40:46.550Z,1020.00
2022-08-05T19:45:54.763Z,1020.24
2022-08-05T19:51:01.445Z,1020.55
2022-08-05T19:56:14.878Z,1020.91
2022-08-05T20:01:17.541Z,1020.86
2022-08-05T20:06:29.171Z,1020.68
2022-08-05T20:11:31.715Z,1021.02
2022-08-05T20:16:39.199Z,1021.04
2022-08-05T20:21:46.608Z,1021.19
2022-08-05T20:26:53.924Z,1021.36
2022-08-05T20:32:01.192Z,1021.33
2022-08-05T20:37:17.773Z,1021.23
2022-08-05T20:42:15.729Z,1021.19
2022-08-05T20:47:32.094Z,1021.13
2022-08-05T20:52:30.290Z,1021.01
2022-08-05T20:57:44.057Z,1020.82
2022-08-05T21:02:51.617Z,1020.65
2022-08-05T21:07:52.479Z,1020.79
2022-08-05T21:13:11.329Z,1020.89
2022-08-05T21:18:06.428Z,1020.82
2022-08-05T21:23:14.123Z,1020.98
2022-08-05T21:28:23.737Z,1020.92
2022-08-05T21:33:36.988Z,1020.84
2022-08-05T21:38:38.734Z,1020.69
2022-08-05T21:43:42.625Z,1020.63
2022-08-05T21:48:49.821Z,1020.44
2022-08-05T21:54:03.511Z,1020.37
2022-08-05T21:59:07.743Z,1020.42
2022-08-05T22:04:13.490Z,1020.42
2022-08-05T22:09:21.545Z,1020.34
2022-08-05T22:14:35.256Z,1020.35
2022-08-05T22:20:00.767Z,1020.36
2022-08-05T22:24:51.653Z,1020.34
2022-08-05T22:29:47.582Z,1020.38
2022-08-05T22:34:54.795Z,1020.35
2022-08-05T22:40:02.130Z,1020.35
2022-08-05T22:45:09.258Z,1020.41
2022-08-05T22:50:20.401Z,1020.51
2022-08-05T22:55:23.782Z,1020.50
2022-08-05T23:00:31.325Z,1020.69
2022-08-05T23:05:38.313Z,1020.76
2022-08-05T23:10:46.547Z,1020.69
2022-08-05T23:15:53.794Z,1020.75
2022-08-05T23:21:01.078Z,1020.72
2022-08-05T23:26:08.353Z,1020.82
2022-08-05T23:31:17.401Z,1020.87
2022-08-05T23:36:28.255Z,1020.96
2022-08-05T23:41:30.061Z,1020.93
2022-08-05T23:46:39.294Z,1020.96
2022-08-05T23:51:44.590Z,1021.04
2022-08-05T23:56:51.837Z,1021.01
